createdAt,value
2018-05-13T00:00:01.238Z,21.24
2018-05-13T00:02:29.619Z,21.20
2018-05-13T00:04:57.994Z,21.33
2018-05-13T00:07:26.390Z,21.24
2018-05-13T00:09:54.751Z,21.28
2018-05-13T00:12:23.117Z,21.61
2018-05-13T00:14:51.476Z,21.85
2018-05-13T00:17:19.907Z,21.88
2018-05-13T00:19:48.262Z,21.75
2018-05-13T00:22:16.620Z,21.67
2018-05-13T00:24:45.031Z,21.54
2018-05-13T00:27:13.410Z,21.99
2018-05-13T00:29:41.778Z,21.74
2018-05-13T00:32:10.133Z,21.78
2018-05-13T00:34:38.549Z,21.91
2018-05-13T00:37:06.906Z,21.68
2018-05-13T00:39:35.336Z,21.42
2018-05-13T00:42:03.785Z,21.73
2018-05-13T00:44:32.139Z,21.34
2018-05-13T00:47:00.493Z,21.69
2018-05-13T00:49:29.250Z,21.45
2018-05-13T00:51:57.610Z,21.40
2018-05-13T00:54:43.900Z,21.54
2018-05-13T00:57:12.263Z,21.67
2018-05-13T00:59:40.622Z,21.62
2018-05-13T01:02:09.390Z,21.65
2018-05-13T01:04:37.751Z,21.93
2018-05-13T01:07:06.123Z,21.83
2018-05-13T01:09:34.477Z,21.97
2018-05-13T01:12:02.832Z,21.82
2018-05-13T01:14:31.256Z,21.81
2018-05-13T01:16:59.621Z,21.51
2018-05-13T01:19:28.004Z,21.85
2018-05-13T01:21:56.390Z,21.79
2018-05-13T01:24:24.741Z,21.63
2018-05-13T01:26:53.110Z,21.77
2018-05-13T01:29:21.462Z,21.45
2018-05-13T01:31:49.891Z,21.68
2018-05-13T01:34:18.998Z,21.56
2018-05-13T01:36:47.353Z,21.59
2018-05-13T01:39:16.731Z,21.84
2018-05-13T01:41:45.481Z,21.64
2018-05-13T01:44:13.859Z,21.78
2018-05-13T01:46:42.229Z,21.85
2018-05-13T01:49:10.590Z,21.73
2018-05-13T01:51:39.270Z,21.71
2018-05-13T01:54:07.667Z,21.71
2018-05-13T01:56:36.049Z,21.69
2018-05-13T01:59:04.422Z,21.83
2018-05-13T02:01:32.779Z,21.62
2018-05-13T02:04:01.154Z,21.63
2018-05-13T02:06:29.565Z,21.76
2018-05-13T02:08:58.051Z,21.72
2018-05-13T02:11:26.413Z,21.59
2018-05-13T02:13:54.805Z,21.62
2018-05-13T02:16:23.273Z,21.56
2018-05-13T02:18:51.658Z,21.65
2018-05-13T02:21:20.926Z,21.86
2018-05-13T02:23:49.287Z,21.74
2018-05-13T02:26:18.035Z,21.67
2018-05-13T02:28:46.497Z,21.51
2018-05-13T02:31:14.842Z,21.40
2018-05-13T02:33:43.237Z,21.59
2018-05-13T02:36:11.598Z,21.67
2018-05-13T02:38:40.345Z,21.52
2018-05-13T02:41:08.807Z,21.63
2018-05-13T02:43:37.191Z,21.61
2018-05-13T02:46:05.670Z,21.13
2018-05-13T02:48:34.034Z,21.60
2018-05-13T02:51:02.553Z,21.27
2018-05-13T02:53:30.926Z,21.37
2018-05-13T02:55:59.284Z,21.54
2018-05-13T02:58:27.664Z,21.47
2018-05-13T03:00:56.062Z,21.52
2018-05-13T03:03:24.419Z,21.48
2018-05-13T03:05:52.793Z,21.36
2018-05-13T03:08:21.261Z,21.43
2018-05-13T03:10:49.667Z,21.45
2018-05-13T03:13:18.030Z,21.67
2018-05-13T03:15:46.387Z,21.55
2018-05-13T03:18:14.746Z,21.45
2018-05-13T03:20:43.597Z,21.34
2018-05-13T03:23:11.971Z,21.13
2018-05-13T03:25:40.331Z,21.32
2018-05-13T03:28:08.723Z,21.17
2018-05-13T03:30:37.102Z,21.43
2018-05-13T03:33:05.460Z,21.53
2018-05-13T03:35:33.836Z,21.43
2018-05-13T03:38:02.189Z,21.47
2018-05-13T03:40:30.968Z,21.56
2018-05-13T03:42:59.818Z,21.53
2018-05-13T03:45:28.185Z,21.38
2018-05-13T03:47:56.554Z,21.54
2018-05-13T03:50:24.906Z,21.54
2018-05-13T03:52:53.339Z,21.56
2018-05-13T03:55:21.811Z,21.58
2018-05-13T03:57:50.199Z,21.53
2018-05-13T04:00:18.674Z,21.89
2018-05-13T04:02:47.031Z,22.01
2018-05-13T04:05:15.438Z,21.93
2018-05-13T04:11:22.335Z,22.04
2018-05-13T04:14:08.406Z,22.11
2018-05-13T04:16:36.880Z,22.75
2018-05-13T04:19:05.195Z,23.49
2018-05-13T04:21:33.571Z,23.67
2018-05-13T04:24:02.050Z,24.11
2018-05-13T04:26:30.405Z,24.58
2018-05-13T04:28:58.767Z,25.32
2018-05-13T04:31:27.126Z,25.70
2018-05-13T04:33:55.970Z,26.40
2018-05-13T04:36:24.352Z,26.76
2018-05-13T04:38:52.763Z,26.55
2018-05-13T04:41:21.107Z,27.26
2018-05-13T04:43:49.485Z,27.83
2018-05-13T04:46:17.871Z,28.18
2018-05-13T04:48:46.351Z,28.39
2018-05-13T04:51:14.702Z,27.88
2018-05-13T04:53:43.062Z,27.69
2018-05-13T04:56:11.896Z,28.62
2018-05-13T04:58:40.262Z,29.45
2018-05-13T05:01:08.655Z,30.52
2018-05-13T05:03:37.019Z,31.16
2018-05-13T05:06:05.374Z,31.15
2018-05-13T05:08:33.745Z,31.37
2018-05-13T05:11:02.574Z,31.70
2018-05-13T05:13:31.041Z,31.46
2018-05-13T05:15:59.413Z,32.19
2018-05-13T05:18:27.809Z,32.03
2018-05-13T05:20:56.195Z,31.97
2018-05-13T05:23:24.546Z,32.46
2018-05-13T05:25:52.954Z,32.05
2018-05-13T05:28:21.318Z,31.89
2018-05-13T05:30:49.708Z,32.19
2018-05-13T05:33:18.081Z,32.44
2018-05-13T05:35:46.476Z,32.81
2018-05-13T05:38:14.945Z,33.51
2018-05-13T05:40:43.309Z,33.95
2018-05-13T05:43:11.679Z,34.05
2018-05-13T05:45:40.041Z,34.06
2018-05-13T05:48:08.787Z,34.35
2018-05-13T05:50:37.167Z,34.58
2018-05-13T05:53:05.603Z,35.33
2018-05-13T05:55:33.970Z,34.85
2018-05-13T05:58:02.389Z,34.70
2018-05-13T06:00:30.747Z,35.03
2018-05-13T06:02:59.155Z,34.34
2018-05-13T06:05:27.525Z,34.24
2018-05-13T06:07:55.882Z,35.19
2018-05-13T06:10:24.241Z,35.58
2018-05-13T06:12:52.994Z,36.29
2018-05-13T06:15:21.373Z,36.37
2018-05-13T06:17:49.730Z,35.80
2018-05-13T06:20:18.088Z,36.10
2018-05-13T06:22:46.475Z,36.09
2018-05-13T06:25:14.885Z,36.25
2018-05-13T06:27:43.235Z,35.91
2018-05-13T06:30:11.595Z,35.34
2018-05-13T06:32:39.993Z,35.79
2018-05-13T06:35:08.351Z,37.27
2018-05-13T06:37:36.766Z,37.69
2018-05-13T06:40:05.142Z,38.74
2018-05-13T06:42:33.522Z,39.49
2018-05-13T06:45:01.893Z,39.38
2018-05-13T06:47:30.255Z,39.77
